sensor_id;sensor_type;location;lat;lon;timestamp;P1;durP1;ratioP1;P2;durP2;ratioP2
33268;SDS011;19640;50.944;5.260;2023-05-19T00:00:56;10.13;;;6.28;;
33268;SDS011;19640;50.944;5.260;2023-05-19T00:03:23;11.23;;;6.18;;
33268;SDS011;19640;50.944;5.260;2023-05-19T00:05:51;8.40;;;5.28;;
33268;SDS011;19640;50.944;5.260;2023-05-19T00:08:18;8.57;;;5.57;;
33268;SDS011;19640;50.944;5.260;2023-05-19T00:10:45;8.32;;;6.18;;
33268;SDS011;19640;50.944;5.260;2023-05-19T00:13:11;7.65;;;5.55;;
33268;SDS011;19640;50.944;5.260;2023-05-19T00:15:37;8.13;;;5.82;;
33268;SDS011;19640;50.944;5.260;2023-05-19T00:18:03;7.20;;;6.45;;
33268;SDS011;19640;50.944;5.260;2023-05-19T00:20:29;7.18;;;6.05;;
33268;SDS011;19640;50.944;5.260;2023-05-19T00:22:54;6.95;;;6.35;;
33268;SDS011;19640;50.944;5.260;2023-05-19T00:25:20;10.15;;;6.82;;
33268;SDS011;19640;50.944;5.260;2023-05-19T00:27:46;12.43;;;6.47;;
33268;SDS011;19640;50.944;5.260;2023-05-19T00:30:11;9.85;;;6.00;;
33268;SDS011;19640;50.944;5.260;2023-05-19T00:32:37;7.70;;;5.97;;
33268;SDS011;19640;50.944;5.260;2023-05-19T00:35:03;6.88;;;5.95;;
33268;SDS011;19640;50.944;5.260;2023-05-19T00:37:29;11.98;;;5.63;;
33268;SDS011;19640;50.944;5.260;2023-05-19T00:39:55;9.40;;;5.70;;
33268;SDS011;19640;50.944;5.260;2023-05-19T00:42:21;8.77;;;6.40;;
33268;SDS011;19640;50.944;5.260;2023-05-19T00:44:47;7.05;;;5.88;;
33268;SDS011;19640;50.944;5.260;2023-05-19T00:47:12;6.85;;;5.75;;
33268;SDS011;19640;50.944;5.260;2023-05-19T00:49:38;7.82;;;6.07;;
33268;SDS011;19640;50.944;5.260;2023-05-19T00:52:04;9.75;;;5.78;;
33268;SDS011;19640;50.944;5.260;2023-05-19T00:54:31;8.85;;;6.13;;
33268;SDS011;19640;50.944;5.260;2023-05-19T00:56:58;9.45;;;6.10;;
33268;SDS011;19640;50.944;5.260;2023-05-19T00:59:25;7.43;;;5.95;;
33268;SDS011;19640;50.944;5.260;2023-05-19T01:01:51;9.90;;;6.75;;
33268;SDS011;19640;50.944;5.260;2023-05-19T01:04:17;10.73;;;6.45;;
33268;SDS011;19640;50.944;5.260;2023-05-19T01:06:46;10.18;;;6.03;;
33268;SDS011;19640;50.944;5.260;2023-05-19T01:09:14;9.68;;;6.63;;
33268;SDS011;19640;50.944;5.260;2023-05-19T01:11:41;10.05;;;6.65;;
33268;SDS011;19640;50.944;5.260;2023-05-19T01:14:06;13.90;;;6.40;;
33268;SDS011;19640;50.944;5.260;2023-05-19T01:16:38;7.70;;;6.22;;
33268;SDS011;19640;50.944;5.260;2023-05-19T01:30:23;13.38;;;7.55;;
33268;SDS011;19640;50.944;5.260;2023-05-19T01:32:51;8.27;;;6.45;;
33268;SDS011;19640;50.944;5.260;2023-05-19T01:35:20;8.48;;;6.63;;
33268;SDS011;19640;50.944;5.260;2023-05-19T01:37:48;9.23;;;6.78;;
33268;SDS011;19640;50.944;5.260;2023-05-19T01:40:18;9.27;;;6.78;;
33268;SDS011;19640;50.944;5.260;2023-05-19T01:42:46;9.00;;;6.60;;
33268;SDS011;19640;50.944;5.260;2023-05-19T01:45:13;9.05;;;6.40;;
33268;SDS011;19640;50.944;5.260;2023-05-19T01:47:40;9.77;;;7.40;;
33268;SDS011;19640;50.944;5.260;2023-05-19T01:50:07;8.27;;;7.05;;
33268;SDS011;19640;50.944;5.260;2023-05-19T01:52:33;8.20;;;6.47;;
33268;SDS011;19640;50.944;5.260;2023-05-19T01:54:59;8.25;;;7.00;;
33268;SDS011;19640;50.944;5.260;2023-05-19T02:02:47;9.55;;;6.32;;
33268;SDS011;19640;50.944;5.260;2023-05-19T02:05:44;12.85;;;7.28;;
33268;SDS011;19640;50.944;5.260;2023-05-19T02:09:27;14.02;;;6.60;;
33268;SDS011;19640;50.944;5.260;2023-05-19T02:17:12;8.65;;;7.28;;
33268;SDS011;19640;50.944;5.260;2023-05-19T02:19:40;8.52;;;6.32;;
33268;SDS011;19640;50.944;5.260;2023-05-19T02:22:07;13.57;;;7.15;;
33268;SDS011;19640;50.944;5.260;2023-05-19T02:24:33;12.02;;;7.07;;
33268;SDS011;19640;50.944;5.260;2023-05-19T02:26:58;11.88;;;7.40;;
33268;SDS011;19640;50.944;5.260;2023-05-19T02:29:24;11.07;;;6.57;;
33268;SDS011;19640;50.944;5.260;2023-05-19T02:31:50;9.30;;;7.03;;
33268;SDS011;19640;50.944;5.260;2023-05-19T02:34:16;14.20;;;7.20;;
33268;SDS011;19640;50.944;5.260;2023-05-19T02:36:41;9.00;;;6.72;;
33268;SDS011;19640;50.944;5.260;2023-05-19T02:39:09;11.80;;;7.63;;
33268;SDS011;19640;50.944;5.260;2023-05-19T02:41:35;10.95;;;7.15;;
33268;SDS011;19640;50.944;5.260;2023-05-19T02:44:01;15.00;;;7.88;;
33268;SDS011;19640;50.944;5.260;2023-05-19T02:46:28;8.60;;;7.15;;
33268;SDS011;19640;50.944;5.260;2023-05-19T02:48:53;8.40;;;7.25;;
33268;SDS011;19640;50.944;5.260;2023-05-19T02:51:19;10.40;;;6.35;;
33268;SDS011;19640;50.944;5.260;2023-05-19T02:53:44;11.50;;;6.95;;
33268;SDS011;19640;50.944;5.260;2023-05-19T02:56:10;10.57;;;7.65;;
33268;SDS011;19640;50.944;5.260;2023-05-19T02:58:36;11.10;;;7.47;;
33268;SDS011;19640;50.944;5.260;2023-05-19T03:01:02;9.48;;;7.05;;
33268;SDS011;19640;50.944;5.260;2023-05-19T03:03:28;11.25;;;7.07;;
33268;SDS011;19640;50.944;5.260;2023-05-19T03:05:54;9.13;;;6.72;;
33268;SDS011;19640;50.944;5.260;2023-05-19T03:08:19;11.48;;;7.75;;
33268;SDS011;19640;50.944;5.260;2023-05-19T03:10:45;12.15;;;8.05;;
33268;SDS011;19640;50.944;5.260;2023-05-19T03:13:11;10.77;;;7.53;;
33268;SDS011;19640;50.944;5.260;2023-05-19T03:15:37;11.20;;;7.05;;
33268;SDS011;19640;50.944;5.260;2023-05-19T03:18:03;11.82;;;7.35;;
33268;SDS011;19640;50.944;5.260;2023-05-19T03:20:29;8.00;;;6.60;;
33268;SDS011;19640;50.944;5.260;2023-05-19T03:22:54;7.97;;;7.10;;
33268;SDS011;19640;50.944;5.260;2023-05-19T03:25:21;11.57;;;7.90;;
33268;SDS011;19640;50.944;5.260;2023-05-19T03:27:46;11.80;;;8.35;;
33268;SDS011;19640;50.944;5.260;2023-05-19T03:30:12;10.30;;;7.50;;
33268;SDS011;19640;50.944;5.260;2023-05-19T03:32:38;11.50;;;8.05;;
33268;SDS011;19640;50.944;5.260;2023-05-19T03:35:04;12.52;;;7.30;;
33268;SDS011;19640;50.944;5.260;2023-05-19T03:37:30;10.77;;;7.60;;
33268;SDS011;19640;50.944;5.260;2023-05-19T03:39:59;11.25;;;7.63;;
33268;SDS011;19640;50.944;5.260;2023-05-19T03:42:24;11.57;;;7.93;;
33268;SDS011;19640;50.944;5.260;2023-05-19T03:44:50;9.23;;;8.00;;
33268;SDS011;19640;50.944;5.260;2023-05-19T03:47:16;9.85;;;7.35;;
33268;SDS011;19640;50.944;5.260;2023-05-19T03:49:42;13.05;;;8.32;;
33268;SDS011;19640;50.944;5.260;2023-05-19T03:52:08;11.35;;;7.93;;
33268;SDS011;19640;50.944;5.260;2023-05-19T03:54:34;11.43;;;8.48;;
33268;SDS011;19640;50.944;5.260;2023-05-19T03:57:00;11.95;;;8.02;;
33268;SDS011;19640;50.944;5.260;2023-05-19T03:59:26;10.35;;;8.18;;
33268;SDS011;19640;50.944;5.260;2023-05-19T04:01:52;12.25;;;8.15;;
33268;SDS011;19640;50.944;5.260;2023-05-19T04:04:17;10.48;;;7.50;;
33268;SDS011;19640;50.944;5.260;2023-05-19T04:06:43;11.07;;;8.68;;
33268;SDS011;19640;50.944;5.260;2023-05-19T04:09:12;9.15;;;7.28;;
33268;SDS011;19640;50.944;5.260;2023-05-19T04:11:39;14.07;;;7.93;;
33268;SDS011;19640;50.944;5.260;2023-05-19T04:14:06;12.85;;;7.90;;
33268;SDS011;19640;50.944;5.260;2023-05-19T04:16:32;9.15;;;8.18;;
33268;SDS011;19640;50.944;5.260;2023-05-19T04:18:58;10.43;;;7.53;;
33268;SDS011;19640;50.944;5.260;2023-05-19T04:21:23;11.48;;;7.50;;
33268;SDS011;19640;50.944;5.260;2023-05-19T04:23:49;11.30;;;7.88;;
33268;SDS011;19640;50.944;5.260;2023-05-19T04:26:15;11.30;;;7.80;;
33268;SDS011;19640;50.944;5.260;2023-05-19T04:28:43;10.48;;;7.10;;
33268;SDS011;19640;50.944;5.260;2023-05-19T04:31:11;11.23;;;7.32;;
33268;SDS011;19640;50.944;5.260;2023-05-19T04:33:38;7.97;;;7.18;;
33268;SDS011;19640;50.944;5.260;2023-05-19T04:36:05;13.48;;;8.20;;
33268;SDS011;19640;50.944;5.260;2023-05-19T04:38:35;16.23;;;8.98;;
33268;SDS011;19640;50.944;5.260;2023-05-19T04:41:04;14.93;;;8.10;;
33268;SDS011;19640;50.944;5.260;2023-05-19T04:43:36;13.35;;;8.13;;
33268;SDS011;19640;50.944;5.260;2023-05-19T04:46:08;10.95;;;7.40;;
33268;SDS011;19640;50.944;5.260;2023-05-19T04:48:35;11.10;;;7.22;;
33268;SDS011;19640;50.944;5.260;2023-05-19T04:51:00;16.80;;;8.60;;
33268;SDS011;19640;50.944;5.260;2023-05-19T04:53:27;13.70;;;7.70;;
33268;SDS011;19640;50.944;5.260;2023-05-19T04:55:53;8.77;;;7.88;;
33268;SDS011;19640;50.944;5.260;2023-05-19T04:58:19;9.18;;;7.90;;
33268;SDS011;19640;50.944;5.260;2023-05-19T05:00:45;10.90;;;7.82;;
33268;SDS011;19640;50.944;5.260;2023-05-19T05:03:10;9.77;;;7.57;;
33268;SDS011;19640;50.944;5.260;2023-05-19T05:05:38;8.32;;;7.50;;
33268;SDS011;19640;50.944;5.260;2023-05-19T05:08:04;9.85;;;7.05;;
33268;SDS011;19640;50.944;5.260;2023-05-19T05:10:31;12.48;;;7.63;;
33268;SDS011;19640;50.944;5.260;2023-05-19T05:12:56;10.52;;;7.47;;
33268;SDS011;19640;50.944;5.260;2023-05-19T05:15:22;9.85;;;6.55;;
33268;SDS011;19640;50.944;5.260;2023-05-19T05:17:48;9.55;;;6.88;;
33268;SDS011;19640;50.944;5.260;2023-05-19T05:20:14;12.18;;;7.05;;
33268;SDS011;19640;50.944;5.260;2023-05-19T05:22:41;12.63;;;7.88;;
33268;SDS011;19640;50.944;5.260;2023-05-19T05:25:07;9.15;;;6.45;;
33268;SDS011;19640;50.944;5.260;2023-05-19T05:27:33;14.13;;;7.15;;
33268;SDS011;19640;50.944;5.260;2023-05-19T05:30:00;12.45;;;7.35;;
33268;SDS011;19640;50.944;5.260;2023-05-19T05:32:25;11.30;;;7.95;;
33268;SDS011;19640;50.944;5.260;2023-05-19T05:34:51;9.63;;;7.18;;
33268;SDS011;19640;50.944;5.260;2023-05-19T05:37:17;9.82;;;6.93;;
33268;SDS011;19640;50.944;5.260;2023-05-19T05:39:43;8.50;;;6.93;;
33268;SDS011;19640;50.944;5.260;2023-05-19T05:42:09;12.13;;;6.93;;
33268;SDS011;19640;50.944;5.260;2023-05-19T05:44:35;12.60;;;6.32;;
33268;SDS011;19640;50.944;5.260;2023-05-19T05:47:01;12.18;;;6.95;;
33268;SDS011;19640;50.944;5.260;2023-05-19T05:49:27;10.02;;;6.78;;
33268;SDS011;19640;50.944;5.260;2023-05-19T05:51:53;12.60;;;6.95;;
33268;SDS011;19640;50.944;5.260;2023-05-19T05:54:20;8.75;;;7.40;;
33268;SDS011;19640;50.944;5.260;2023-05-19T05:56:47;9.95;;;6.40;;
33268;SDS011;19640;50.944;5.260;2023-05-19T05:59:13;7.85;;;6.68;;
33268;SDS011;19640;50.944;5.260;2023-05-19T06:01:39;9.38;;;6.72;;
33268;SDS011;19640;50.944;5.260;2023-05-19T06:04:06;8.60;;;6.70;;
33268;SDS011;19640;50.944;5.260;2023-05-19T06:06:32;8.73;;;7.03;;
33268;SDS011;19640;50.944;5.260;2023-05-19T06:08:57;8.93;;;6.72;;
33268;SDS011;19640;50.944;5.260;2023-05-19T06:11:24;7.43;;;6.30;;
33268;SDS011;19640;50.944;5.260;2023-05-19T06:13:50;8.18;;;5.88;;
33268;SDS011;19640;50.944;5.260;2023-05-19T06:16:16;8.88;;;5.72;;
33268;SDS011;19640;50.944;5.260;2023-05-19T06:18:42;13.32;;;5.38;;
33268;SDS011;19640;50.944;5.260;2023-05-19T06:21:07;13.88;;;6.53;;
33268;SDS011;19640;50.944;5.260;2023-05-19T06:23:34;11.30;;;7.13;;
33268;SDS011;19640;50.944;5.260;2023-05-19T06:26:00;10.77;;;5.90;;
33268;SDS011;19640;50.944;5.260;2023-05-19T06:28:26;10.80;;;5.75;;
33268;SDS011;19640;50.944;5.260;2023-05-19T06:30:52;7.40;;;5.05;;
33268;SDS011;19640;50.944;5.260;2023-05-19T06:33:17;10.15;;;5.03;;
33268;SDS011;19640;50.944;5.260;2023-05-19T06:35:43;9.82;;;5.03;;
33268;SDS011;19640;50.944;5.260;2023-05-19T06:38:09;11.70;;;4.43;;
33268;SDS011;19640;50.944;5.260;2023-05-19T06:40:35;7.50;;;4.22;;
33268;SDS011;19640;50.944;5.260;2023-05-19T06:43:01;6.03;;;4.05;;
33268;SDS011;19640;50.944;5.260;2023-05-19T06:45:27;7.47;;;4.78;;
33268;SDS011;19640;50.944;5.260;2023-05-19T06:47:53;5.75;;;4.10;;
33268;SDS011;19640;50.944;5.260;2023-05-19T06:50:21;7.95;;;4.93;;
33268;SDS011;19640;50.944;5.260;2023-05-19T06:52:47;6.93;;;3.88;;
33268;SDS011;19640;50.944;5.260;2023-05-19T06:55:13;5.55;;;3.55;;
33268;SDS011;19640;50.944;5.260;2023-05-19T06:57:39;6.25;;;3.38;;
33268;SDS011;19640;50.944;5.260;2023-05-19T07:00:05;6.78;;;3.90;;
33268;SDS011;19640;50.944;5.260;2023-05-19T07:02:36;5.38;;;3.05;;
33268;SDS011;19640;50.944;5.260;2023-05-19T07:05:04;5.35;;;2.95;;
33268;SDS011;19640;50.944;5.260;2023-05-19T07:07:32;8.50;;;3.13;;
33268;SDS011;19640;50.944;5.260;2023-05-19T07:09:58;6.55;;;3.70;;
33268;SDS011;19640;50.944;5.260;2023-05-19T07:12:23;4.13;;;2.83;;
33268;SDS011;19640;50.944;5.260;2023-05-19T07:14:51;4.95;;;2.40;;
33268;SDS011;19640;50.944;5.260;2023-05-19T07:17:16;4.75;;;3.08;;
33268;SDS011;19640;50.944;5.260;2023-05-19T07:19:42;5.45;;;2.55;;
33268;SDS011;19640;50.944;5.260;2023-05-19T07:22:08;5.22;;;2.80;;
33268;SDS011;19640;50.944;5.260;2023-05-19T07:24:34;4.85;;;2.60;;
33268;SDS011;19640;50.944;5.260;2023-05-19T07:26:59;4.35;;;2.30;;
33268;SDS011;19640;50.944;5.260;2023-05-19T07:29:25;6.82;;;2.35;;
33268;SDS011;19640;50.944;5.260;2023-05-19T07:31:51;5.70;;;2.40;;
33268;SDS011;19640;50.944;5.260;2023-05-19T07:34:21;4.03;;;2.17;;
33268;SDS011;19640;50.944;5.260;2023-05-19T07:36:50;3.72;;;2.20;;
33268;SDS011;19640;50.944;5.260;2023-05-19T07:39:16;4.45;;;2.08;;
33268;SDS011;19640;50.944;5.260;2023-05-19T07:41:42;3.85;;;2.00;;
33268;SDS011;19640;50.944;5.260;2023-05-19T07:44:08;5.82;;;2.08;;
33268;SDS011;19640;50.944;5.260;2023-05-19T07:46:34;8.15;;;1.77;;
33268;SDS011;19640;50.944;5.260;2023-05-19T07:49:03;7.70;;;2.42;;
33268;SDS011;19640;50.944;5.260;2023-05-19T07:51:28;6.28;;;1.90;;
33268;SDS011;19640;50.944;5.260;2023-05-19T07:53:55;5.50;;;2.50;;
33268;SDS011;19640;50.944;5.260;2023-05-19T07:56:21;7.65;;;2.33;;
33268;SDS011;19640;50.944;5.260;2023-05-19T07:58:48;5.22;;;2.13;;
33268;SDS011;19640;50.944;5.260;2023-05-19T08:01:14;4.93;;;2.30;;
33268;SDS011;19640;50.944;5.260;2023-05-19T08:03:40;8.98;;;1.90;;
33268;SDS011;19640;50.944;5.260;2023-05-19T08:06:06;4.28;;;2.00;;
33268;SDS011;19640;50.944;5.260;2023-05-19T08:08:32;5.57;;;2.30;;
33268;SDS011;19640;50.944;5.260;2023-05-19T08:11:00;4.40;;;1.95;;
33268;SDS011;19640;50.944;5.260;2023-05-19T08:13:27;6.57;;;2.03;;
33268;SDS011;19640;50.944;5.260;2023-05-19T08:15:53;6.35;;;1.80;;
33268;SDS011;19640;50.944;5.260;2023-05-19T08:18:23;4.03;;;1.70;;
33268;SDS011;19640;50.944;5.260;2023-05-19T08:20:50;5.22;;;2.22;;
33268;SDS011;19640;50.944;5.260;2023-05-19T08:23:15;5.30;;;1.80;;
33268;SDS011;19640;50.944;5.260;2023-05-19T08:25:41;3.60;;;1.98;;
33268;SDS011;19640;50.944;5.260;2023-05-19T08:28:08;4.30;;;1.77;;
33268;SDS011;19640;50.944;5.260;2023-05-19T08:30:34;5.78;;;1.60;;
33268;SDS011;19640;50.944;5.260;2023-05-19T08:33:00;2.95;;;1.30;;
33268;SDS011;19640;50.944;5.260;2023-05-19T08:35:26;6.07;;;1.83;;
33268;SDS011;19640;50.944;5.260;2023-05-19T08:37:52;8.68;;;1.77;;
33268;SDS011;19640;50.944;5.260;2023-05-19T08:40:18;5.10;;;2.03;;
33268;SDS011;19640;50.944;5.260;2023-05-19T08:42:44;5.25;;;1.67;;
33268;SDS011;19640;50.944;5.260;2023-05-19T08:45:10;3.35;;;1.65;;
33268;SDS011;19640;50.944;5.260;2023-05-19T08:47:37;4.85;;;1.67;;
33268;SDS011;19640;50.944;5.260;2023-05-19T08:50:04;3.15;;;1.58;;
33268;SDS011;19640;50.944;5.260;2023-05-19T08:52:34;3.10;;;1.45;;
33268;SDS011;19640;50.944;5.260;2023-05-19T09:00:13;5.07;;;1.60;;
33268;SDS011;19640;50.944;5.260;2023-05-19T09:02:40;3.92;;;1.50;;
33268;SDS011;19640;50.944;5.260;2023-05-19T09:05:06;4.78;;;1.73;;
33268;SDS011;19640;50.944;5.260;2023-05-19T09:07:34;5.20;;;1.42;;
33268;SDS011;19640;50.944;5.260;2023-05-19T09:10:02;8.13;;;1.98;;
33268;SDS011;19640;50.944;5.260;2023-05-19T09:12:28;4.00;;;1.40;;
33268;SDS011;19640;50.944;5.260;2023-05-19T09:14:54;5.90;;;1.33;;
33268;SDS011;19640;50.944;5.260;2023-05-19T09:17:21;4.13;;;1.30;;
33268;SDS011;19640;50.944;5.260;2023-05-19T09:19:47;5.10;;;1.65;;
33268;SDS011;19640;50.944;5.260;2023-05-19T09:22:13;2.50;;;1.25;;
33268;SDS011;19640;50.944;5.260;2023-05-19T09:24:40;3.92;;;1.50;;
33268;SDS011;19640;50.944;5.260;2023-05-19T09:27:06;4.47;;;1.30;;
33268;SDS011;19640;50.944;5.260;2023-05-19T09:29:32;4.30;;;1.20;;
33268;SDS011;19640;50.944;5.260;2023-05-19T09:31:58;3.88;;;1.42;;
33268;SDS011;19640;50.944;5.260;2023-05-19T09:34:29;5.80;;;1.60;;
33268;SDS011;19640;50.944;5.260;2023-05-19T09:36:55;3.53;;;1.27;;
33268;SDS011;19640;50.944;5.260;2023-05-19T09:39:23;3.17;;;1.40;;
33268;SDS011;19640;50.944;5.260;2023-05-19T09:41:50;4.95;;;1.80;;
33268;SDS011;19640;50.944;5.260;2023-05-19T09:46:53;4.50;;;2.17;;
33268;SDS011;19640;50.944;5.260;2023-05-19T09:51:55;6.05;;;2.30;;
33268;SDS011;19640;50.944;5.260;2023-05-19T09:54:22;4.25;;;2.25;;
33268;SDS011;19640;50.944;5.260;2023-05-19T09:56:58;4.97;;;2.05;;
33268;SDS011;19640;50.944;5.260;2023-05-19T09:59:25;4.30;;;2.25;;
33268;SDS011;19640;50.944;5.260;2023-05-19T10:01:53;5.22;;;2.20;;
33268;SDS011;19640;50.944;5.260;2023-05-19T10:04:21;5.55;;;2.50;;
33268;SDS011;19640;50.944;5.260;2023-05-19T10:06:49;5.97;;;2.22;;
33268;SDS011;19640;50.944;5.260;2023-05-19T10:09:24;3.45;;;1.67;;
33268;SDS011;19640;50.944;5.260;2023-05-19T10:11:52;4.72;;;1.55;;
33268;SDS011;19640;50.944;5.260;2023-05-19T10:14:25;3.40;;;1.42;;
33268;SDS011;19640;50.944;5.260;2023-05-19T10:16:53;3.65;;;1.75;;
33268;SDS011;19640;50.944;5.260;2023-05-19T10:19:20;3.40;;;1.50;;
33268;SDS011;19640;50.944;5.260;2023-05-19T10:21:50;5.70;;;1.50;;
33268;SDS011;19640;50.944;5.260;2023-05-19T10:24:17;3.05;;;1.10;;
33268;SDS011;19640;50.944;5.260;2023-05-19T10:26:45;3.78;;;1.20;;
33268;SDS011;19640;50.944;5.260;2023-05-19T10:29:24;3.53;;;1.27;;
33268;SDS011;19640;50.944;5.260;2023-05-19T10:31:58;3.42;;;1.20;;
33268;SDS011;19640;50.944;5.260;2023-05-19T10:40:03;4.10;;;1.20;;
33268;SDS011;19640;50.944;5.260;2023-05-19T10:42:42;3.13;;;1.30;;
33268;SDS011;19640;50.944;5.260;2023-05-19T10:45:18;5.22;;;1.42;;
33268;SDS011;19640;50.944;5.260;2023-05-19T10:47:46;3.95;;;1.70;;
33268;SDS011;19640;50.944;5.260;2023-05-19T10:50:15;7.43;;;1.70;;
33268;SDS011;19640;50.944;5.260;2023-05-19T10:52:41;4.38;;;1.38;;
33268;SDS011;19640;50.944;5.260;2023-05-19T10:55:09;3.15;;;1.30;;
33268;SDS011;19640;50.944;5.260;2023-05-19T10:57:54;7.88;;;1.73;;
33268;SDS011;19640;50.944;5.260;2023-05-19T11:00:28;4.35;;;0.80;;
33268;SDS011;19640;50.944;5.260;2023-05-19T11:03:14;3.33;;;1.30;;
33268;SDS011;19640;50.944;5.260;2023-05-19T11:05:41;3.10;;;1.95;;
33268;SDS011;19640;50.944;5.260;2023-05-19T11:08:10;3.13;;;1.40;;
33268;SDS011;19640;50.944;5.260;2023-05-19T11:10:37;4.78;;;1.50;;
33268;SDS011;19640;50.944;5.260;2023-05-19T11:13:03;1.52;;;1.08;;
33268;SDS011;19640;50.944;5.260;2023-05-19T11:15:33;7.55;;;1.60;;
33268;SDS011;19640;50.944;5.260;2023-05-19T11:18:03;4.65;;;1.33;;
33268;SDS011;19640;50.944;5.260;2023-05-19T11:20:29;4.97;;;1.48;;
33268;SDS011;19640;50.944;5.260;2023-05-19T11:23:05;5.30;;;1.92;;
33268;SDS011;19640;50.944;5.260;2023-05-19T11:28:05;4.57;;;1.63;;
33268;SDS011;19640;50.944;5.260;2023-05-19T11:30:31;3.38;;;1.30;;
33268;SDS011;19640;50.944;5.260;2023-05-19T11:32:57;3.92;;;1.42;;
33268;SDS011;19640;50.944;5.260;2023-05-19T11:35:23;4.15;;;1.30;;
33268;SDS011;19640;50.944;5.260;2023-05-19T11:37:51;6.88;;;1.90;;
33268;SDS011;19640;50.944;5.260;2023-05-19T11:40:18;6.53;;;1.70;;
33268;SDS011;19640;50.944;5.260;2023-05-19T11:42:45;5.78;;;1.95;;
33268;SDS011;19640;50.944;5.260;2023-05-19T11:45:11;5.18;;;1.85;;
33268;SDS011;19640;50.944;5.260;2023-05-19T11:47:37;6.72;;;2.00;;
33268;SDS011;19640;50.944;5.260;2023-05-19T11:50:02;5.80;;;1.73;;
33268;SDS011;19640;50.944;5.260;2023-05-19T11:52:29;3.30;;;1.60;;
33268;SDS011;19640;50.944;5.260;2023-05-19T11:54:55;2.50;;;1.50;;
33268;SDS011;19640;50.944;5.260;2023-05-19T11:57:25;5.53;;;1.80;;
33268;SDS011;19640;50.944;5.260;2023-05-19T11:59:51;5.15;;;1.98;;
33268;SDS011;19640;50.944;5.260;2023-05-19T12:02:21;3.50;;;1.67;;
33268;SDS011;19640;50.944;5.260;2023-05-19T12:04:51;4.30;;;1.50;;
33268;SDS011;19640;50.944;5.260;2023-05-19T12:07:18;5.60;;;1.90;;
33268;SDS011;19640;50.944;5.260;2023-05-19T12:09:47;7.82;;;1.55;;
33268;SDS011;19640;50.944;5.260;2023-05-19T12:12:17;4.10;;;2.08;;
33268;SDS011;19640;50.944;5.260;2023-05-19T12:14:48;4.72;;;1.65;;
33268;SDS011;19640;50.944;5.260;2023-05-19T12:17:16;6.03;;;1.83;;
33268;SDS011;19640;50.944;5.260;2023-05-19T12:19:45;4.68;;;1.65;;
33268;SDS011;19640;50.944;5.260;2023-05-19T12:22:13;5.03;;;1.60;;
33268;SDS011;19640;50.944;5.260;2023-05-19T12:24:39;2.95;;;1.55;;
33268;SDS011;19640;50.944;5.260;2023-05-19T12:27:10;6.22;;;1.67;;
33268;SDS011;19640;50.944;5.260;2023-05-19T12:29:48;4.68;;;2.20;;
33268;SDS011;19640;50.944;5.260;2023-05-19T12:34:41;5.05;;;1.70;;
33268;SDS011;19640;50.944;5.260;2023-05-19T12:37:07;6.40;;;1.63;;
33268;SDS011;19640;50.944;5.260;2023-05-19T12:39:35;4.40;;;1.85;;
33268;SDS011;19640;50.944;5.260;2023-05-19T12:42:07;4.10;;;1.90;;
33268;SDS011;19640;50.944;5.260;2023-05-19T12:44:37;4.78;;;2.03;;
33268;SDS011;19640;50.944;5.260;2023-05-19T12:47:07;4.03;;;1.60;;
33268;SDS011;19640;50.944;5.260;2023-05-19T12:49:33;3.90;;;1.60;;
33268;SDS011;19640;50.944;5.260;2023-05-19T12:52:01;2.65;;;1.48;;
33268;SDS011;19640;50.944;5.260;2023-05-19T12:54:31;3.75;;;1.52;;
33268;SDS011;19640;50.944;5.260;2023-05-19T12:56:58;4.68;;;1.60;;
33268;SDS011;19640;50.944;5.260;2023-05-19T12:59:24;3.35;;;1.40;;
33268;SDS011;19640;50.944;5.260;2023-05-19T13:01:56;4.70;;;1.55;;
33268;SDS011;19640;50.944;5.260;2023-05-19T13:04:27;3.90;;;1.27;;
33268;SDS011;19640;50.944;5.260;2023-05-19T13:06:53;5.00;;;1.90;;
33268;SDS011;19640;50.944;5.260;2023-05-19T13:09:19;3.55;;;1.35;;
33268;SDS011;19640;50.944;5.260;2023-05-19T13:11:45;6.75;;;1.65;;
33268;SDS011;19640;50.944;5.260;2023-05-19T13:14:16;4.60;;;1.30;;
33268;SDS011;19640;50.944;5.260;2023-05-19T13:16:43;4.10;;;1.52;;
33268;SDS011;19640;50.944;5.260;2023-05-19T13:19:11;4.47;;;1.75;;
33268;SDS011;19640;50.944;5.260;2023-05-19T13:21:43;3.47;;;1.17;;
33268;SDS011;19640;50.944;5.260;2023-05-19T13:24:11;5.55;;;1.50;;
33268;SDS011;19640;50.944;5.260;2023-05-19T13:26:37;4.07;;;1.77;;
33268;SDS011;19640;50.944;5.260;2023-05-19T13:29:05;8.85;;;2.28;;
33268;SDS011;19640;50.944;5.260;2023-05-19T13:31:31;5.13;;;1.55;;
33268;SDS011;19640;50.944;5.260;2023-05-19T13:33:56;6.32;;;2.47;;
33268;SDS011;19640;50.944;5.260;2023-05-19T13:36:22;6.78;;;2.03;;
33268;SDS011;19640;50.944;5.260;2023-05-19T13:38:49;4.93;;;2.03;;
33268;SDS011;19640;50.944;5.260;2023-05-19T13:41:15;4.57;;;2.17;;
33268;SDS011;19640;50.944;5.260;2023-05-19T13:43:41;4.88;;;1.88;;
33268;SDS011;19640;50.944;5.260;2023-05-19T13:46:07;4.63;;;1.63;;
33268;SDS011;19640;50.944;5.260;2023-05-19T13:48:32;3.65;;;1.73;;
33268;SDS011;19640;50.944;5.260;2023-05-19T13:50:58;6.38;;;1.92;;
33268;SDS011;19640;50.944;5.260;2023-05-19T13:53:24;9.02;;;2.10;;
33268;SDS011;19640;50.944;5.260;2023-05-19T13:55:50;8.40;;;1.88;;
33268;SDS011;19640;50.944;5.260;2023-05-19T13:58:19;4.80;;;1.70;;
33268;SDS011;19640;50.944;5.260;2023-05-19T14:00:44;18.23;;;2.30;;
33268;SDS011;19640;50.944;5.260;2023-05-19T14:03:10;3.28;;;1.58;;
33268;SDS011;19640;50.944;5.260;2023-05-19T14:05:35;7.45;;;1.63;;
33268;SDS011;19640;50.944;5.260;2023-05-19T14:08:02;5.43;;;1.83;;
33268;SDS011;19640;50.944;5.260;2023-05-19T14:10:29;2.85;;;1.40;;
33268;SDS011;19640;50.944;5.260;2023-05-19T14:12:55;4.13;;;1.63;;
33268;SDS011;19640;50.944;5.260;2023-05-19T14:15:23;5.30;;;1.70;;
33268;SDS011;19640;50.944;5.260;2023-05-19T14:17:50;7.57;;;1.90;;
33268;SDS011;19640;50.944;5.260;2023-05-19T14:20:17;5.93;;;1.98;;
33268;SDS011;19640;50.944;5.260;2023-05-19T14:22:43;5.43;;;2.00;;
33268;SDS011;19640;50.944;5.260;2023-05-19T14:25:09;6.22;;;2.10;;
33268;SDS011;19640;50.944;5.260;2023-05-19T14:27:35;9.25;;;2.05;;
33268;SDS011;19640;50.944;5.260;2023-05-19T14:30:01;6.80;;;2.10;;
33268;SDS011;19640;50.944;5.260;2023-05-19T14:32:27;4.00;;;1.88;;
33268;SDS011;19640;50.944;5.260;2023-05-19T14:34:52;3.85;;;1.83;;
33268;SDS011;19640;50.944;5.260;2023-05-19T14:37:18;4.80;;;1.52;;
33268;SDS011;19640;50.944;5.260;2023-05-19T14:39:45;4.50;;;1.67;;
33268;SDS011;19640;50.944;5.260;2023-05-19T14:42:11;5.10;;;1.70;;
33268;SDS011;19640;50.944;5.260;2023-05-19T14:44:37;4.40;;;1.63;;
33268;SDS011;19640;50.944;5.260;2023-05-19T14:47:02;4.93;;;1.85;;
33268;SDS011;19640;50.944;5.260;2023-05-19T14:49:28;1.50;;;1.17;;
33268;SDS011;19640;50.944;5.260;2023-05-19T14:51:54;4.85;;;1.75;;
33268;SDS011;19640;50.944;5.260;2023-05-19T14:54:20;2.97;;;1.52;;
33268;SDS011;19640;50.944;5.260;2023-05-19T14:56:46;7.07;;;2.28;;
33268;SDS011;19640;50.944;5.260;2023-05-19T14:59:11;6.57;;;1.88;;
33268;SDS011;19640;50.944;5.260;2023-05-19T15:01:37;2.17;;;1.30;;
33268;SDS011;19640;50.944;5.260;2023-05-19T15:04:03;3.40;;;1.70;;
33268;SDS011;19640;50.944;5.260;2023-05-19T15:06:29;4.05;;;1.90;;
33268;SDS011;19640;50.944;5.260;2023-05-19T15:08:54;2.95;;;1.33;;
33268;SDS011;19640;50.944;5.260;2023-05-19T15:11:20;3.72;;;1.65;;
33268;SDS011;19640;50.944;5.260;2023-05-19T15:13:46;2.88;;;1.50;;
33268;SDS011;19640;50.944;5.260;2023-05-19T15:16:12;3.67;;;1.40;;
33268;SDS011;19640;50.944;5.260;2023-05-19T15:18:37;3.88;;;1.70;;
33268;SDS011;19640;50.944;5.260;2023-05-19T15:21:03;4.43;;;1.60;;
33268;SDS011;19640;50.944;5.260;2023-05-19T15:23:29;5.32;;;2.40;;
33268;SDS011;19640;50.944;5.260;2023-05-19T15:25:55;3.08;;;1.35;;
33268;SDS011;19640;50.944;5.260;2023-05-19T15:28:20;3.35;;;1.83;;